L'Atalante — FNCM — position and weather

sailwx.info

Track history (hours):
 
Tides and Currents Weather Stations Pressure Air Temp Water Temp Dewpoint Dewpoint Depression Visibility Wind Speed Wind Dir Waves Ship Positions

Oceanographic research ship L'Atalante (France)

Detailed information on ship capabilities available from University of Delaware's Ocean Information Center and ARCUS's ALIAS (Arctic Logistics Information and Support) project.

Last reported at 2017-Apr-19 18:14 UTC. Time now 2017-Apr-23 15:54 UTC.
Position N 15°44' W 061°33'.

Length 85 m; beam 16 m.

Type: Other ship. MMSI: 227222000.

Date/timePositionNaut miles runAvg speedWind from/ knotsBaromVisibWave heightAir tempDewpointWater temp
2017-Apr-19 18:14N 15°44' W 061°33'1 0.2
2017-Apr-19 13:35N 15°44' W 061°34'0 2.3
2017-Apr-19 13:30N 15°44' W 061°34'  
2017-Apr-15 10:50N 15°45' W 061°35'7 0.3
2017-Apr-14 07:20N 15°43' W 061°42'5 8.4
2017-Apr-14 06:43N 15°47' W 061°46'2 5.8
2017-Apr-14 06:21N 15°49' W 061°46'3 6.4
2017-Apr-14 05:54N 15°48' W 061°44'4 8.4
2017-Apr-14 05:29N 15°45' W 061°41'6 2.8
2017-Apr-14 03:20N 15°51' W 061°44'  
2017-Apr-09 22:22N 15°45' W 061°34'  
Track history (hours):
 
Tides and Currents Weather Stations Pressure Air Temp Water Temp Dewpoint Dewpoint Depression Visibility Wind Speed Wind Dir Waves Ship Positions

Oceanographic research ship L'Atalante (France)

Detailed information on ship capabilities available from University of Delaware's Ocean Information Center and ARCUS's ALIAS (Arctic Logistics Information and Support) project.

Last reported at 2017-Apr-19 18:14 UTC. Time now 2017-Apr-23 15:54 UTC.
Position N 15°44' W 061°33'.

Length 85 m; beam 16 m.

Type: Other ship. MMSI: 227222000.

Date/timePositionNaut miles runAvg speedWind from/ knotsBaromVisibWave heightAir tempDewpointWater temp
2017-Apr-19 18:14N 15°44' W 061°33'1 0.2
2017-Apr-19 13:35N 15°44' W 061°34'0 2.3
2017-Apr-19 13:30N 15°44' W 061°34'  
2017-Apr-15 10:50N 15°45' W 061°35'7 0.3
2017-Apr-14 07:20N 15°43' W 061°42'5 8.4
2017-Apr-14 06:43N 15°47' W 061°46'2 5.8
2017-Apr-14 06:21N 15°49' W 061°46'3 6.4
2017-Apr-14 05:54N 15°48' W 061°44'4 8.4
2017-Apr-14 05:29N 15°45' W 061°41'6 2.8
2017-Apr-14 03:20N 15°51' W 061°44'  
2017-Apr-09 22:22N 15°45' W 061°34'  

Dump ship's entire track history